createdAt,value
2023-03-07T00:02:43.526Z,0.52
2023-03-07T00:06:43.527Z,0.51
2023-03-07T00:10:43.571Z,0.52
2023-03-07T00:14:43.613Z,0.51
2023-03-07T00:18:43.600Z,0.50
2023-03-07T00:22:43.707Z,0.52
2023-03-07T00:26:43.691Z,0.51
2023-03-07T00:30:43.725Z,0.52
2023-03-07T00:34:43.773Z,0.51
2023-03-07T00:38:43.810Z,0.51
2023-03-07T00:42:43.881Z,0.51
2023-03-07T00:46:43.935Z,0.51
2023-03-07T00:50:43.969Z,0.52
2023-03-07T00:54:43.955Z,0.52
2023-03-07T00:58:44.003Z,0.51
2023-03-07T01:02:44.074Z,0.52
2023-03-07T01:06:44.109Z,0.52
2023-03-07T01:10:44.143Z,0.52
2023-03-07T01:14:44.132Z,0.51
2023-03-07T01:18:44.180Z,0.51
2023-03-07T01:22:44.213Z,0.52
2023-03-07T01:26:44.251Z,0.52
2023-03-07T01:30:44.300Z,0.52
2023-03-07T01:34:44.331Z,0.51
2023-03-07T01:38:44.363Z,0.52
2023-03-07T01:42:44.409Z,0.51
2023-03-07T01:46:44.445Z,0.52
2023-03-07T01:50:44.486Z,0.50
2023-03-07T01:54:44.550Z,0.52
2023-03-07T01:58:44.605Z,0.52
2023-03-07T02:02:44.649Z,0.51
2023-03-07T02:06:44.753Z,0.50
2023-03-07T02:10:44.788Z,0.52
2023-03-07T02:14:44.809Z,0.52
2023-03-07T02:18:44.872Z,0.52
2023-03-07T02:22:45.041Z,0.51
2023-03-07T02:26:45.002Z,0.52
2023-03-07T02:30:45.107Z,0.52
2023-03-07T02:34:45.117Z,0.52
2023-03-07T02:38:45.213Z,0.51
2023-03-07T02:42:45.223Z,0.51
2023-03-07T02:46:45.331Z,0.52
2023-03-07T02:50:45.391Z,0.52
2023-03-07T02:54:45.415Z,0.51
2023-03-07T02:58:45.465Z,0.52
2023-03-07T03:02:45.513Z,0.51
2023-03-07T03:06:45.582Z,0.51
2023-03-07T03:10:45.641Z,0.52
2023-03-07T03:14:45.759Z,0.52
2023-03-07T03:18:45.809Z,0.52
2023-03-07T03:22:45.921Z,0.52
2023-03-07T03:26:46.004Z,0.52
2023-03-07T03:30:46.051Z,0.52
2023-03-07T03:34:46.134Z,0.52
2023-03-07T03:38:46.213Z,0.51
2023-03-07T03:42:46.365Z,0.51
2023-03-07T03:46:46.411Z,0.52
2023-03-07T03:50:46.433Z,0.50
2023-03-07T03:54:46.546Z,0.52
2023-03-07T03:58:46.592Z,0.52
2023-03-07T04:02:46.833Z,0.51
2023-03-07T04:06:46.809Z,0.51
2023-03-07T04:10:46.904Z,0.51
2023-03-07T04:14:47.022Z,0.51
2023-03-07T04:18:47.092Z,0.51
2023-03-07T04:22:47.159Z,0.53
2023-03-07T04:26:47.257Z,0.52
2023-03-07T04:30:47.385Z,0.52
2023-03-07T04:34:47.492Z,0.52
2023-03-07T04:38:47.580Z,0.52
2023-03-07T04:42:47.632Z,0.51
2023-03-07T04:46:47.715Z,0.52
2023-03-07T04:50:47.825Z,0.51
2023-03-07T04:54:47.985Z,0.52
2023-03-07T04:58:48.048Z,0.52
2023-03-07T05:02:48.149Z,0.51
2023-03-07T05:06:48.265Z,0.51
2023-03-07T05:10:48.393Z,0.51
2023-03-07T05:14:48.456Z,0.50
2023-03-07T05:18:48.622Z,0.50
2023-03-07T05:22:48.727Z,0.52
2023-03-07T05:26:48.811Z,0.53
2023-03-07T05:30:48.952Z,0.52
2023-03-07T05:34:49.043Z,0.51
2023-03-07T05:38:49.196Z,0.52
2023-03-07T05:42:49.284Z,0.51
2023-03-07T05:46:49.430Z,0.53
2023-03-07T05:50:49.546Z,0.51
2023-03-07T05:54:51.354Z,0.50
2023-03-07T05:58:49.753Z,0.51
2023-03-07T06:02:49.937Z,0.50
2023-03-07T06:06:49.951Z,0.50
2023-03-07T06:10:50.050Z,0.52
2023-03-07T06:14:50.162Z,0.52
2023-03-07T06:18:50.224Z,0.51
2023-03-07T06:22:50.317Z,0.50
2023-03-07T06:26:50.428Z,0.51
2023-03-07T06:30:50.505Z,0.52
2023-03-07T06:34:50.568Z,0.51
2023-03-07T06:38:50.663Z,0.52
2023-03-07T06:42:50.986Z,0.55
2023-03-07T06:46:50.962Z,0.59
2023-03-07T06:50:50.943Z,0.66
2023-03-07T06:54:50.861Z,0.61
2023-03-07T06:58:51.451Z,0.70
2023-03-07T07:02:51.157Z,0.78
2023-03-07T07:06:51.482Z,0.76
2023-03-07T07:10:51.272Z,0.79
2023-03-07T07:14:51.429Z,0.87
2023-03-07T07:18:51.999Z,1.07
2023-03-07T07:22:51.682Z,1.02
2023-03-07T07:26:51.672Z,1.08
2023-03-07T07:30:51.686Z,1.11
2023-03-07T07:34:51.972Z,1.22
2023-03-07T07:38:51.995Z,1.27
2023-03-07T07:42:52.254Z,1.35
2023-03-07T07:46:52.433Z,1.33
2023-03-07T07:50:53.023Z,1.33
2023-03-07T07:54:53.024Z,1.39
2023-03-07T07:58:52.835Z,1.28
2023-03-07T08:02:53.449Z,1.20
2023-03-07T08:06:52.829Z,1.12
2023-03-07T08:10:52.944Z,1.11
2023-03-07T08:14:53.046Z,1.11
2023-03-07T08:18:53.161Z,1.01
2023-03-07T08:22:53.219Z,0.92
2023-03-07T08:26:53.256Z,1.00
2023-03-07T08:30:53.339Z,0.99
2023-03-07T08:34:53.386Z,0.99
2023-03-07T08:38:53.508Z,1.00
2023-03-07T08:42:54.022Z,0.81
2023-03-07T08:46:54.007Z,0.90
2023-03-07T08:50:55.141Z,0.85
2023-03-07T08:54:53.931Z,0.89
2023-03-07T08:58:54.036Z,0.92
2023-03-07T09:02:54.159Z,0.95
2023-03-07T09:06:54.265Z,0.96
2023-03-07T09:10:54.489Z,0.99
2023-03-07T09:14:54.242Z,1.04
2023-03-07T09:18:54.524Z,1.08
2023-03-07T09:22:54.172Z,1.14
2023-03-07T09:26:54.544Z,1.19
2023-03-07T09:30:54.089Z,1.24
2023-03-07T09:34:54.620Z,1.27
2023-03-07T09:38:53.949Z,1.47
2023-03-07T09:42:54.028Z,1.77
2023-03-07T09:46:54.018Z,1.84
2023-03-07T09:50:54.060Z,1.80
2023-03-07T09:54:54.041Z,0.66
2023-03-07T09:58:53.868Z,0.97
2023-03-07T10:02:53.941Z,1.00
2023-03-07T10:06:55.251Z,1.01
2023-03-07T10:10:54.296Z,1.08
2023-03-07T10:14:54.400Z,1.15
2023-03-07T10:18:54.563Z,1.16
2023-03-07T10:22:54.552Z,1.08
2023-03-07T10:26:55.081Z,1.16
2023-03-07T10:30:54.869Z,1.14
2023-03-07T10:34:55.073Z,1.16
2023-03-07T10:38:55.607Z,1.18
2023-03-07T10:42:55.592Z,1.21
2023-03-07T10:46:56.530Z,1.19
2023-03-07T10:50:55.462Z,1.22
2023-03-07T10:54:55.623Z,1.20
2023-03-07T10:58:56.042Z,1.16
2023-03-07T11:02:56.049Z,1.05
2023-03-07T11:06:56.281Z,1.02
2023-03-07T11:10:56.548Z,1.00
2023-03-07T11:14:56.711Z,0.99
2023-03-07T11:18:57.048Z,0.96
2023-03-07T11:22:57.107Z,0.95
2023-03-07T11:26:57.317Z,0.92
2023-03-07T11:30:57.600Z,0.89
2023-03-07T11:34:58.073Z,0.90
2023-03-07T11:38:57.934Z,0.95
2023-03-07T11:42:58.599Z,0.92
2023-03-07T11:46:58.243Z,0.50
2023-03-07T11:50:58.588Z,0.72
2023-03-07T11:54:58.419Z,0.82
2023-03-07T11:58:58.631Z,0.92
2023-03-07T12:02:58.772Z,1.02
2023-03-07T12:06:58.811Z,1.11
2023-03-07T12:10:58.818Z,1.28
2023-03-07T12:14:58.979Z,1.27
2023-03-07T12:18:59.078Z,1.36
2023-03-07T12:22:59.285Z,1.44
2023-03-07T12:26:59.456Z,1.52
2023-03-07T12:31:00.191Z,1.60
2023-03-07T12:35:00.127Z,1.68
2023-03-07T12:39:00.144Z,1.67
2023-03-07T12:43:00.134Z,1.61
2023-03-07T12:47:00.322Z,1.70
2023-03-07T12:51:00.614Z,1.81
2023-03-07T12:55:00.621Z,6.12
2023-03-07T12:59:00.724Z,2.21
2023-03-07T13:03:00.901Z,2.14
2023-03-07T13:07:01.058Z,2.28
2023-03-07T13:11:01.207Z,2.36
2023-03-07T13:15:01.211Z,2.35
2023-03-07T13:19:01.280Z,2.32
2023-03-07T13:23:01.669Z,2.39
2023-03-07T13:27:01.461Z,2.36
2023-03-07T13:31:01.592Z,2.25
2023-03-07T13:35:01.689Z,2.22
2023-03-07T13:39:02.091Z,2.15
2023-03-07T13:43:01.862Z,2.15
2023-03-07T13:47:01.813Z,2.09
2023-03-07T13:51:01.878Z,2.11
2023-03-07T13:55:01.898Z,2.07
2023-03-07T13:59:02.044Z,2.01
2023-03-07T14:03:01.947Z,1.95
2023-03-07T14:07:02.035Z,1.92
2023-03-07T14:11:02.018Z,1.87
2023-03-07T14:15:02.107Z,1.81
2023-03-07T14:19:02.158Z,1.77
2023-03-07T14:23:02.173Z,1.71
2023-03-07T14:27:02.226Z,1.70
2023-03-07T14:31:02.330Z,1.63
2023-03-07T14:35:02.441Z,1.61
2023-03-07T14:39:02.486Z,1.57
2023-03-07T14:43:02.593Z,1.55
2023-03-07T14:47:02.682Z,1.48
2023-03-07T14:51:02.800Z,1.46
2023-03-07T14:55:02.973Z,1.45
2023-03-07T14:59:03.035Z,1.42
2023-03-07T15:03:03.139Z,1.37
2023-03-07T15:07:03.299Z,1.35
2023-03-07T15:11:03.677Z,1.30
2023-03-07T15:15:03.629Z,1.44
2023-03-07T15:19:03.726Z,1.43
2023-03-07T15:23:04.137Z,1.41
2023-03-07T15:27:04.044Z,1.42
2023-03-07T15:31:04.247Z,1.43
2023-03-07T15:35:04.345Z,1.18
2023-03-07T15:39:04.598Z,1.05
2023-03-07T15:43:05.031Z,1.05
2023-03-07T15:47:04.927Z,1.06
2023-03-07T15:51:05.140Z,1.04
2023-03-07T15:55:05.392Z,1.05
2023-03-07T15:59:05.633Z,1.00
2023-03-07T16:03:05.867Z,1.01
2023-03-07T16:07:05.939Z,1.00
2023-03-07T16:11:05.910Z,0.97
2023-03-07T16:15:05.965Z,0.96
2023-03-07T16:19:05.873Z,0.94
2023-03-07T16:23:05.865Z,0.93
2023-03-07T16:27:05.852Z,0.92
2023-03-07T16:31:05.723Z,0.92
2023-03-07T16:35:05.696Z,0.90
2023-03-07T16:39:05.709Z,0.88
2023-03-07T16:43:05.679Z,0.88
2023-03-07T16:47:05.603Z,0.88
2023-03-07T16:51:05.571Z,0.86
2023-03-07T16:55:05.513Z,0.86
2023-03-07T16:59:05.484Z,0.84
2023-03-07T17:03:05.396Z,0.84
2023-03-07T17:07:05.418Z,0.82
2023-03-07T17:11:05.403Z,0.83
2023-03-07T17:15:05.327Z,0.83
2023-03-07T17:19:05.277Z,0.81
2023-03-07T17:23:05.244Z,0.81
2023-03-07T17:27:05.231Z,0.79
2023-03-07T17:31:05.332Z,0.79
2023-03-07T17:35:05.364Z,0.77
2023-03-07T17:39:05.401Z,0.77
2023-03-07T17:43:05.491Z,0.76
2023-03-07T17:47:05.550Z,0.76
2023-03-07T17:51:05.685Z,0.76
2023-03-07T17:55:06.629Z,0.74
2023-03-07T17:59:05.835Z,0.75
2023-03-07T18:03:06.050Z,0.75
2023-03-07T18:07:06.036Z,0.74
2023-03-07T18:11:06.163Z,0.74
2023-03-07T18:15:06.301Z,0.72
2023-03-07T18:19:08.343Z,0.72
2023-03-07T18:23:07.349Z,0.72
2023-03-07T18:27:06.302Z,0.72
2023-03-07T18:31:06.297Z,0.72
2023-03-07T18:35:06.284Z,0.73
2023-03-07T18:39:06.420Z,0.72
2023-03-07T18:43:06.577Z,0.72
2023-03-07T18:47:06.693Z,0.71
2023-03-07T18:51:06.824Z,0.72
2023-03-07T18:55:06.981Z,0.70
2023-03-07T18:59:07.491Z,0.71
2023-03-07T19:03:07.651Z,0.69
2023-03-07T19:07:07.682Z,0.67
2023-03-07T19:11:07.766Z,0.68
2023-03-07T19:15:07.908Z,0.67
2023-03-07T19:19:08.001Z,0.69
2023-03-07T19:23:08.215Z,0.68
2023-03-07T19:27:08.280Z,0.67
2023-03-07T19:31:08.315Z,0.66
2023-03-07T19:35:08.586Z,0.66
2023-03-07T19:39:08.783Z,0.67
2023-03-07T19:43:08.880Z,0.67
2023-03-07T19:47:09.062Z,0.66
2023-03-07T19:51:09.196Z,0.66
2023-03-07T19:55:09.402Z,0.66
2023-03-07T19:59:09.644Z,0.64
2023-03-07T20:03:09.746Z,0.64
2023-03-07T20:07:09.954Z,0.63
2023-03-07T20:11:10.125Z,0.63
2023-03-07T20:15:10.289Z,0.64
2023-03-07T20:19:10.502Z,0.65
2023-03-07T20:23:10.679Z,0.64
2023-03-07T20:27:10.858Z,0.63
2023-03-07T20:31:11.119Z,0.63
2023-03-07T20:35:11.259Z,0.64
2023-03-07T20:39:11.451Z,0.64
2023-03-07T20:43:11.681Z,0.62
2023-03-07T20:47:11.985Z,0.62
2023-03-07T20:51:12.066Z,0.62
2023-03-07T20:55:12.316Z,0.63
2023-03-07T20:59:12.551Z,0.61
2023-03-07T21:03:12.700Z,0.61
2023-03-07T21:07:12.963Z,0.62
2023-03-07T21:11:13.100Z,0.61
2023-03-07T21:15:13.359Z,0.61
2023-03-07T21:19:13.562Z,0.61
2023-03-07T21:23:13.768Z,0.59
2023-03-07T21:27:13.731Z,0.60
2023-03-07T21:31:13.731Z,0.61
2023-03-07T21:35:13.663Z,0.58
2023-03-07T21:39:13.630Z,0.59
2023-03-07T21:43:13.581Z,0.60
2023-03-07T21:47:13.543Z,0.58
2023-03-07T21:51:13.856Z,0.59
2023-03-07T21:55:13.452Z,0.58
2023-03-07T21:59:13.400Z,0.58
2023-03-07T22:03:13.368Z,0.57
2023-03-07T22:07:13.330Z,0.58
2023-03-07T22:11:13.485Z,0.58
2023-03-07T22:15:13.685Z,0.57
2023-03-07T22:19:13.850Z,0.56
2023-03-07T22:23:14.019Z,0.56
2023-03-07T22:27:14.184Z,0.58
2023-03-07T22:31:14.320Z,0.56
2023-03-07T22:35:14.454Z,0.57
2023-03-07T22:39:14.612Z,0.56
2023-03-07T22:43:14.833Z,0.55
2023-03-07T22:47:14.987Z,0.56
2023-03-07T22:51:15.198Z,0.55
2023-03-07T22:55:15.402Z,0.56
2023-03-07T22:59:15.458Z,0.55
2023-03-07T23:03:15.532Z,0.55
2023-03-07T23:07:15.502Z,0.54
2023-03-07T23:11:15.613Z,0.53
2023-03-07T23:15:15.656Z,0.53
2023-03-07T23:19:15.660Z,0.55
2023-03-07T23:23:15.747Z,0.54
2023-03-07T23:27:15.814Z,0.54
2023-03-07T23:31:15.977Z,0.53
2023-03-07T23:35:15.956Z,0.53
2023-03-07T23:39:16.013Z,0.53
2023-03-07T23:43:16.148Z,0.54
2023-03-07T23:47:16.060Z,0.52
2023-03-07T23:51:16.100Z,0.52
2023-03-07T23:55:16.125Z,0.52
2023-03-07T23:59:16.175Z,0.50
